sensor_id;sensor_type;location;lat;lon;timestamp;temperature;humidity
19088;DHT22;9676;50.916;13.352;2023-08-20T00:00:35;27.80;51.10
19088;DHT22;9676;50.916;13.352;2023-08-20T00:03:25;27.80;51.30
19088;DHT22;9676;50.916;13.352;2023-08-20T00:06:15;27.80;51.20
19088;DHT22;9676;50.916;13.352;2023-08-20T00:09:04;27.80;51.20
19088;DHT22;9676;50.916;13.352;2023-08-20T00:11:57;27.70;51.30
19088;DHT22;9676;50.916;13.352;2023-08-20T00:14:54;27.70;51.30
19088;DHT22;9676;50.916;13.352;2023-08-20T00:17:46;27.70;51.70
19088;DHT22;9676;50.916;13.352;2023-08-20T00:20:37;27.60;51.40
19088;DHT22;9676;50.916;13.352;2023-08-20T00:23:28;27.50;51.40
19088;DHT22;9676;50.916;13.352;2023-08-20T00:26:18;27.60;51.80
19088;DHT22;9676;50.916;13.352;2023-08-20T00:29:09;27.50;51.80
19088;DHT22;9676;50.916;13.352;2023-08-20T00:31:59;27.50;52.00
19088;DHT22;9676;50.916;13.352;2023-08-20T00:34:48;27.50;52.20
19088;DHT22;9676;50.916;13.352;2023-08-20T00:37:37;27.50;52.20
19088;DHT22;9676;50.916;13.352;2023-08-20T00:40:27;27.50;52.20
19088;DHT22;9676;50.916;13.352;2023-08-20T00:43:16;27.40;52.30
19088;DHT22;9676;50.916;13.352;2023-08-20T00:46:07;27.50;52.40
19088;DHT22;9676;50.916;13.352;2023-08-20T00:48:56;27.50;52.60
19088;DHT22;9676;50.916;13.352;2023-08-20T00:51:47;27.50;52.70
19088;DHT22;9676;50.916;13.352;2023-08-20T00:54:39;27.50;52.60
19088;DHT22;9676;50.916;13.352;2023-08-20T00:57:29;27.50;52.70
19088;DHT22;9676;50.916;13.352;2023-08-20T01:00:18;27.50;52.70
19088;DHT22;9676;50.916;13.352;2023-08-20T01:03:10;27.50;52.90
19088;DHT22;9676;50.916;13.352;2023-08-20T01:06:09;27.60;53.00
19088;DHT22;9676;50.916;13.352;2023-08-20T01:09:07;27.60;53.30
19088;DHT22;9676;50.916;13.352;2023-08-20T01:12:03;27.60;53.20
19088;DHT22;9676;50.916;13.352;2023-08-20T01:14:52;27.70;53.20
19088;DHT22;9676;50.916;13.352;2023-08-20T01:17:42;27.70;53.20
19088;DHT22;9676;50.916;13.352;2023-08-20T01:20:39;27.70;53.20
19088;DHT22;9676;50.916;13.352;2023-08-20T01:27:16;27.80;53.70
19088;DHT22;9676;50.916;13.352;2023-08-20T01:30:15;27.90;53.50
19088;DHT22;9676;50.916;13.352;2023-08-20T01:33:05;27.90;53.30
19088;DHT22;9676;50.916;13.352;2023-08-20T01:35:56;27.90;53.30
19088;DHT22;9676;50.916;13.352;2023-08-20T01:38:45;27.90;53.30
19088;DHT22;9676;50.916;13.352;2023-08-20T01:41:34;27.90;53.30
19088;DHT22;9676;50.916;13.352;2023-08-20T01:44:24;28.00;53.50
19088;DHT22;9676;50.916;13.352;2023-08-20T01:47:14;28.00;53.50
19088;DHT22;9676;50.916;13.352;2023-08-20T01:50:05;28.00;53.50
19088;DHT22;9676;50.916;13.352;2023-08-20T01:52:55;28.00;53.50
19088;DHT22;9676;50.916;13.352;2023-08-20T01:55:44;28.00;53.50
19088;DHT22;9676;50.916;13.352;2023-08-20T01:58:33;28.00;53.60
19088;DHT22;9676;50.916;13.352;2023-08-20T02:01:23;28.10;53.60
19088;DHT22;9676;50.916;13.352;2023-08-20T02:04:15;28.10;53.60
19088;DHT22;9676;50.916;13.352;2023-08-20T02:07:04;28.10;53.60
19088;DHT22;9676;50.916;13.352;2023-08-20T02:09:54;28.10;53.60
19088;DHT22;9676;50.916;13.352;2023-08-20T02:12:43;28.10;53.60
19088;DHT22;9676;50.916;13.352;2023-08-20T02:15:33;28.10;53.60
19088;DHT22;9676;50.916;13.352;2023-08-20T02:18:22;28.10;53.70
19088;DHT22;9676;50.916;13.352;2023-08-20T02:21:13;28.10;53.70
19088;DHT22;9676;50.916;13.352;2023-08-20T02:24:02;28.10;53.90
19088;DHT22;9676;50.916;13.352;2023-08-20T02:26:52;28.10;54.00
19088;DHT22;9676;50.916;13.352;2023-08-20T02:29:42;28.10;54.10
19088;DHT22;9676;50.916;13.352;2023-08-20T02:32:35;28.10;54.20
19088;DHT22;9676;50.916;13.352;2023-08-20T02:35:25;28.10;54.30
19088;DHT22;9676;50.916;13.352;2023-08-20T02:38:15;28.10;54.40
19088;DHT22;9676;50.916;13.352;2023-08-20T02:41:05;28.10;54.50
19088;DHT22;9676;50.916;13.352;2023-08-20T02:43:54;28.10;54.70
19088;DHT22;9676;50.916;13.352;2023-08-20T02:46:43;28.10;54.80
19088;DHT22;9676;50.916;13.352;2023-08-20T02:49:33;28.10;54.80
19088;DHT22;9676;50.916;13.352;2023-08-20T02:52:23;28.00;55.00
19088;DHT22;9676;50.916;13.352;2023-08-20T02:55:14;28.00;55.00
19088;DHT22;9676;50.916;13.352;2023-08-20T02:58:04;28.00;55.20
19088;DHT22;9676;50.916;13.352;2023-08-20T03:00:56;28.00;55.30
19088;DHT22;9676;50.916;13.352;2023-08-20T03:03:45;28.00;55.40
19088;DHT22;9676;50.916;13.352;2023-08-20T03:06:35;28.00;55.50
19088;DHT22;9676;50.916;13.352;2023-08-20T03:09:24;28.00;55.50
19088;DHT22;9676;50.916;13.352;2023-08-20T03:12:15;28.00;55.50
19088;DHT22;9676;50.916;13.352;2023-08-20T03:15:05;28.00;55.60
19088;DHT22;9676;50.916;13.352;2023-08-20T03:17:56;27.90;55.70
19088;DHT22;9676;50.916;13.352;2023-08-20T03:20:45;27.90;55.90
19088;DHT22;9676;50.916;13.352;2023-08-20T03:23:35;27.90;56.20
19088;DHT22;9676;50.916;13.352;2023-08-20T03:26:25;27.80;56.10
19088;DHT22;9676;50.916;13.352;2023-08-20T03:29:15;27.80;56.20
19088;DHT22;9676;50.916;13.352;2023-08-20T03:32:05;27.80;56.40
19088;DHT22;9676;50.916;13.352;2023-08-20T03:34:55;27.80;56.40
19088;DHT22;9676;50.916;13.352;2023-08-20T03:37:46;27.70;56.50
19088;DHT22;9676;50.916;13.352;2023-08-20T03:40:36;27.70;56.70
19088;DHT22;9676;50.916;13.352;2023-08-20T03:43:25;27.70;56.80
19088;DHT22;9676;50.916;13.352;2023-08-20T03:46:16;27.60;56.80
19088;DHT22;9676;50.916;13.352;2023-08-20T03:49:05;27.60;57.10
19088;DHT22;9676;50.916;13.352;2023-08-20T03:51:55;27.60;57.00
19088;DHT22;9676;50.916;13.352;2023-08-20T03:54:44;27.50;57.70
19088;DHT22;9676;50.916;13.352;2023-08-20T03:57:36;27.50;57.30
19088;DHT22;9676;50.916;13.352;2023-08-20T04:00:25;27.40;57.30
19088;DHT22;9676;50.916;13.352;2023-08-20T04:03:16;27.40;57.50
19088;DHT22;9676;50.916;13.352;2023-08-20T04:06:07;27.40;57.70
19088;DHT22;9676;50.916;13.352;2023-08-20T04:08:57;27.40;57.80
19088;DHT22;9676;50.916;13.352;2023-08-20T04:11:46;27.30;58.00
19088;DHT22;9676;50.916;13.352;2023-08-20T04:14:36;27.30;58.10
19088;DHT22;9676;50.916;13.352;2023-08-20T04:17:25;27.20;58.20
19088;DHT22;9676;50.916;13.352;2023-08-20T04:20:16;27.20;58.20
19088;DHT22;9676;50.916;13.352;2023-08-20T04:23:07;27.20;58.70
19088;DHT22;9676;50.916;13.352;2023-08-20T04:25:56;27.20;58.70
19088;DHT22;9676;50.916;13.352;2023-08-20T04:28:46;27.10;58.80
19088;DHT22;9676;50.916;13.352;2023-08-20T04:31:36;27.10;59.20
19088;DHT22;9676;50.916;13.352;2023-08-20T04:34:29;27.10;59.30
19088;DHT22;9676;50.916;13.352;2023-08-20T04:37:20;27.10;59.50
19088;DHT22;9676;50.916;13.352;2023-08-20T04:40:10;27.10;59.80
19088;DHT22;9676;50.916;13.352;2023-08-20T04:43:03;27.10;60.00
19088;DHT22;9676;50.916;13.352;2023-08-20T04:45:54;27.10;60.10
19088;DHT22;9676;50.916;13.352;2023-08-20T04:48:44;27.10;60.40
19088;DHT22;9676;50.916;13.352;2023-08-20T04:51:33;27.10;60.60
19088;DHT22;9676;50.916;13.352;2023-08-20T04:54:24;27.10;60.70
19088;DHT22;9676;50.916;13.352;2023-08-20T04:57:13;27.20;61.10
19088;DHT22;9676;50.916;13.352;2023-08-20T05:00:06;27.20;61.00
19088;DHT22;9676;50.916;13.352;2023-08-20T05:03:07;27.20;61.30
19088;DHT22;9676;50.916;13.352;2023-08-20T05:05:57;27.30;61.70
19088;DHT22;9676;50.916;13.352;2023-08-20T05:08:46;27.30;61.60
19088;DHT22;9676;50.916;13.352;2023-08-20T05:11:37;27.30;61.90
19088;DHT22;9676;50.916;13.352;2023-08-20T05:14:27;27.30;62.10
19088;DHT22;9676;50.916;13.352;2023-08-20T05:17:16;27.30;62.20
19088;DHT22;9676;50.916;13.352;2023-08-20T05:20:06;27.40;62.40
19088;DHT22;9676;50.916;13.352;2023-08-20T05:22:58;27.40;62.60
19088;DHT22;9676;50.916;13.352;2023-08-20T05:25:47;27.40;62.80
19088;DHT22;9676;50.916;13.352;2023-08-20T05:28:38;27.50;63.10
19088;DHT22;9676;50.916;13.352;2023-08-20T05:31:28;27.50;63.30
19088;DHT22;9676;50.916;13.352;2023-08-20T05:34:17;27.50;63.20
19088;DHT22;9676;50.916;13.352;2023-08-20T05:37:07;27.60;63.40
19088;DHT22;9676;50.916;13.352;2023-08-20T05:39:56;27.60;63.60
19088;DHT22;9676;50.916;13.352;2023-08-20T05:42:46;27.70;63.90
19088;DHT22;9676;50.916;13.352;2023-08-20T05:45:40;27.70;64.10
19088;DHT22;9676;50.916;13.352;2023-08-20T05:48:33;27.70;64.30
19088;DHT22;9676;50.916;13.352;2023-08-20T05:51:23;27.80;64.50
19088;DHT22;9676;50.916;13.352;2023-08-20T05:54:12;27.90;64.80
19088;DHT22;9676;50.916;13.352;2023-08-20T05:57:02;27.90;65.10
19088;DHT22;9676;50.916;13.352;2023-08-20T05:59:52;28.10;66.40
19088;DHT22;9676;50.916;13.352;2023-08-20T06:02:43;28.30;67.40
19088;DHT22;9676;50.916;13.352;2023-08-20T06:05:32;28.50;67.70
19088;DHT22;9676;50.916;13.352;2023-08-20T06:08:21;28.70;67.50
19088;DHT22;9676;50.916;13.352;2023-08-20T06:11:11;28.90;67.40
19088;DHT22;9676;50.916;13.352;2023-08-20T06:14:00;29.10;67.30
19088;DHT22;9676;50.916;13.352;2023-08-20T06:16:50;29.30;67.30
19088;DHT22;9676;50.916;13.352;2023-08-20T06:19:41;29.60;68.10
19088;DHT22;9676;50.916;13.352;2023-08-20T06:22:30;29.90;69.00
19088;DHT22;9676;50.916;13.352;2023-08-20T06:25:20;30.20;69.10
19088;DHT22;9676;50.916;13.352;2023-08-20T06:28:10;30.40;68.50
19088;DHT22;9676;50.916;13.352;2023-08-20T06:30:59;30.70;67.80
19088;DHT22;9676;50.916;13.352;2023-08-20T06:33:48;30.90;67.10
19088;DHT22;9676;50.916;13.352;2023-08-20T06:36:39;31.00;66.60
19088;DHT22;9676;50.916;13.352;2023-08-20T06:39:29;31.20;66.50
19088;DHT22;9676;50.916;13.352;2023-08-20T06:42:18;31.30;66.40
19088;DHT22;9676;50.916;13.352;2023-08-20T06:45:08;31.50;67.30
19088;DHT22;9676;50.916;13.352;2023-08-20T06:47:58;31.90;69.00
19088;DHT22;9676;50.916;13.352;2023-08-20T06:50:47;32.40;70.90
19088;DHT22;9676;50.916;13.352;2023-08-20T06:53:38;33.10;72.00
19088;DHT22;9676;50.916;13.352;2023-08-20T06:56:28;33.80;72.00
19088;DHT22;9676;50.916;13.352;2023-08-20T06:59:18;34.60;71.80
19088;DHT22;9676;50.916;13.352;2023-08-20T07:02:07;35.40;70.80
19088;DHT22;9676;50.916;13.352;2023-08-20T07:04:57;36.20;69.70
19088;DHT22;9676;50.916;13.352;2023-08-20T07:07:47;37.00;67.90
19088;DHT22;9676;50.916;13.352;2023-08-20T07:10:38;37.70;66.70
19088;DHT22;9676;50.916;13.352;2023-08-20T07:13:27;38.50;64.90
19088;DHT22;9676;50.916;13.352;2023-08-20T07:16:16;39.10;63.20
19088;DHT22;9676;50.916;13.352;2023-08-20T07:19:06;39.70;61.80
19088;DHT22;9676;50.916;13.352;2023-08-20T07:21:55;40.30;60.70
19088;DHT22;9676;50.916;13.352;2023-08-20T07:24:45;40.90;59.80
19088;DHT22;9676;50.916;13.352;2023-08-20T07:27:35;41.50;58.80
19088;DHT22;9676;50.916;13.352;2023-08-20T07:30:25;42.10;57.20
19088;DHT22;9676;50.916;13.352;2023-08-20T07:33:14;42.40;55.80
19088;DHT22;9676;50.916;13.352;2023-08-20T07:36:04;42.60;54.20
19088;DHT22;9676;50.916;13.352;2023-08-20T07:38:54;42.70;52.90
19088;DHT22;9676;50.916;13.352;2023-08-20T07:41:43;42.80;52.80
19088;DHT22;9676;50.916;13.352;2023-08-20T07:44:34;42.90;52.80
19088;DHT22;9676;50.916;13.352;2023-08-20T07:47:24;43.10;52.50
19088;DHT22;9676;50.916;13.352;2023-08-20T07:50:13;43.40;52.50
19088;DHT22;9676;50.916;13.352;2023-08-20T07:53:03;43.80;52.10
19088;DHT22;9676;50.916;13.352;2023-08-20T07:55:52;44.20;51.80
19088;DHT22;9676;50.916;13.352;2023-08-20T07:58:42;44.60;51.30
19088;DHT22;9676;50.916;13.352;2023-08-20T08:01:32;44.90;50.80
19088;DHT22;9676;50.916;13.352;2023-08-20T08:04:22;45.20;49.80
19088;DHT22;9676;50.916;13.352;2023-08-20T08:07:11;45.40;48.70
19088;DHT22;9676;50.916;13.352;2023-08-20T08:10:01;45.60;48.30
19088;DHT22;9676;50.916;13.352;2023-08-20T08:12:51;45.80;48.10
19088;DHT22;9676;50.916;13.352;2023-08-20T08:15:40;45.90;47.10
19088;DHT22;9676;50.916;13.352;2023-08-20T08:18:31;45.90;46.80
19088;DHT22;9676;50.916;13.352;2023-08-20T08:21:21;46.00;46.60
19088;DHT22;9676;50.916;13.352;2023-08-20T08:24:10;46.10;46.60
19088;DHT22;9676;50.916;13.352;2023-08-20T08:27:00;46.30;46.30
19088;DHT22;9676;50.916;13.352;2023-08-20T08:29:50;46.50;45.80
19088;DHT22;9676;50.916;13.352;2023-08-20T08:32:40;46.60;45.10
19088;DHT22;9676;50.916;13.352;2023-08-20T08:35:31;46.60;44.50
19088;DHT22;9676;50.916;13.352;2023-08-20T08:38:20;46.50;43.80
19088;DHT22;9676;50.916;13.352;2023-08-20T08:41:14;46.30;44.10
19088;DHT22;9676;50.916;13.352;2023-08-20T08:44:06;45.90;42.80
19088;DHT22;9676;50.916;13.352;2023-08-20T08:46:57;45.60;42.70
19088;DHT22;9676;50.916;13.352;2023-08-20T08:49:48;45.20;43.00
19088;DHT22;9676;50.916;13.352;2023-08-20T08:52:40;45.00;43.50
19088;DHT22;9676;50.916;13.352;2023-08-20T08:55:30;44.90;43.40
19088;DHT22;9676;50.916;13.352;2023-08-20T08:58:20;44.80;43.50
19088;DHT22;9676;50.916;13.352;2023-08-20T09:01:09;44.60;43.40
19088;DHT22;9676;50.916;13.352;2023-08-20T09:03:59;44.40;43.20
19088;DHT22;9676;50.916;13.352;2023-08-20T09:06:49;44.30;43.40
19088;DHT22;9676;50.916;13.352;2023-08-20T09:09:44;44.20;43.50
19088;DHT22;9676;50.916;13.352;2023-08-20T09:12:34;43.90;43.00
19088;DHT22;9676;50.916;13.352;2023-08-20T09:15:31;43.80;42.90
19088;DHT22;9676;50.916;13.352;2023-08-20T09:18:23;43.60;42.00
19088;DHT22;9676;50.916;13.352;2023-08-20T09:21:13;43.20;42.00
19088;DHT22;9676;50.916;13.352;2023-08-20T09:24:03;42.70;41.70
19088;DHT22;9676;50.916;13.352;2023-08-20T09:26:58;42.20;41.70
19088;DHT22;9676;50.916;13.352;2023-08-20T09:29:49;41.70;41.60
19088;DHT22;9676;50.916;13.352;2023-08-20T09:32:39;41.20;41.80
19088;DHT22;9676;50.916;13.352;2023-08-20T09:35:28;40.60;41.90
19088;DHT22;9676;50.916;13.352;2023-08-20T09:38:20;40.10;42.20
19088;DHT22;9676;50.916;13.352;2023-08-20T09:41:11;39.60;42.70
19088;DHT22;9676;50.916;13.352;2023-08-20T09:44:04;39.20;43.70
19088;DHT22;9676;50.916;13.352;2023-08-20T09:46:55;38.90;44.70
19088;DHT22;9676;50.916;13.352;2023-08-20T09:49:45;38.80;45.20
19088;DHT22;9676;50.916;13.352;2023-08-20T09:52:39;38.70;45.50
19088;DHT22;9676;50.916;13.352;2023-08-20T09:55:39;38.90;45.90
19088;DHT22;9676;50.916;13.352;2023-08-20T09:58:30;39.10;46.40
19088;DHT22;9676;50.916;13.352;2023-08-20T10:01:22;39.40;46.40
19088;DHT22;9676;50.916;13.352;2023-08-20T10:04:12;39.70;46.60
19088;DHT22;9676;50.916;13.352;2023-08-20T10:07:02;40.10;46.90
19088;DHT22;9676;50.916;13.352;2023-08-20T10:09:52;40.60;47.20
19088;DHT22;9676;50.916;13.352;2023-08-20T10:12:42;41.30;47.50
19088;DHT22;9676;50.916;13.352;2023-08-20T10:15:33;42.00;47.40
19088;DHT22;9676;50.916;13.352;2023-08-20T10:18:31;42.70;46.70
19088;DHT22;9676;50.916;13.352;2023-08-20T10:21:24;43.40;46.30
19088;DHT22;9676;50.916;13.352;2023-08-20T10:24:16;44.10;46.10
19088;DHT22;9676;50.916;13.352;2023-08-20T10:27:08;44.70;45.10
19088;DHT22;9676;50.916;13.352;2023-08-20T10:29:59;45.10;44.40
19088;DHT22;9676;50.916;13.352;2023-08-20T10:32:50;45.30;43.70
19088;DHT22;9676;50.916;13.352;2023-08-20T10:35:48;45.50;43.20
19088;DHT22;9676;50.916;13.352;2023-08-20T10:38:39;45.60;42.40
19088;DHT22;9676;50.916;13.352;2023-08-20T10:41:29;45.80;42.70
19088;DHT22;9676;50.916;13.352;2023-08-20T10:44:24;45.90;42.40
19088;DHT22;9676;50.916;13.352;2023-08-20T10:47:17;45.90;42.20
19088;DHT22;9676;50.916;13.352;2023-08-20T10:50:08;46.10;41.90
19088;DHT22;9676;50.916;13.352;2023-08-20T10:53:00;46.10;41.70
19088;DHT22;9676;50.916;13.352;2023-08-20T10:55:52;46.20;41.60
19088;DHT22;9676;50.916;13.352;2023-08-20T10:58:45;46.40;41.60
19088;DHT22;9676;50.916;13.352;2023-08-20T11:01:35;46.40;40.70
19088;DHT22;9676;50.916;13.352;2023-08-20T11:04:29;46.40;40.60
19088;DHT22;9676;50.916;13.352;2023-08-20T11:07:20;46.20;40.30
19088;DHT22;9676;50.916;13.352;2023-08-20T11:10:13;46.10;40.60
19088;DHT22;9676;50.916;13.352;2023-08-20T11:13:02;46.00;40.80
19088;DHT22;9676;50.916;13.352;2023-08-20T11:15:53;46.10;40.80
19088;DHT22;9676;50.916;13.352;2023-08-20T11:18:43;46.10;40.70
19088;DHT22;9676;50.916;13.352;2023-08-20T11:21:32;46.10;40.40
19088;DHT22;9676;50.916;13.352;2023-08-20T11:24:22;46.00;39.90
19088;DHT22;9676;50.916;13.352;2023-08-20T11:27:14;45.60;38.80
19088;DHT22;9676;50.916;13.352;2023-08-20T11:30:04;45.20;38.70
19088;DHT22;9676;50.916;13.352;2023-08-20T11:32:55;44.60;38.50
19088;DHT22;9676;50.916;13.352;2023-08-20T11:35:44;44.00;38.40
19088;DHT22;9676;50.916;13.352;2023-08-20T11:38:34;43.50;38.40
19088;DHT22;9676;50.916;13.352;2023-08-20T11:41:24;42.90;38.40
19088;DHT22;9676;50.916;13.352;2023-08-20T11:44:20;42.30;38.70
19088;DHT22;9676;50.916;13.352;2023-08-20T11:47:14;41.70;39.00
19088;DHT22;9676;50.916;13.352;2023-08-20T11:50:04;41.10;39.40
19088;DHT22;9676;50.916;13.352;2023-08-20T11:52:54;40.50;39.70
19088;DHT22;9676;50.916;13.352;2023-08-20T11:55:44;40.00;39.80
19088;DHT22;9676;50.916;13.352;2023-08-20T11:58:33;39.60;40.10
19088;DHT22;9676;50.916;13.352;2023-08-20T12:01:24;39.10;40.20
19088;DHT22;9676;50.916;13.352;2023-08-20T12:04:14;38.70;40.60
19088;DHT22;9676;50.916;13.352;2023-08-20T12:07:05;38.30;40.70
19088;DHT22;9676;50.916;13.352;2023-08-20T12:09:57;37.80;41.10
19088;DHT22;9676;50.916;13.352;2023-08-20T12:12:46;37.50;41.40
19088;DHT22;9676;50.916;13.352;2023-08-20T12:15:36;37.20;41.70
19088;DHT22;9676;50.916;13.352;2023-08-20T12:18:27;36.90;41.90
19088;DHT22;9676;50.916;13.352;2023-08-20T12:21:17;36.80;42.40
19088;DHT22;9676;50.916;13.352;2023-08-20T12:24:08;36.70;42.60
19088;DHT22;9676;50.916;13.352;2023-08-20T12:26:58;36.70;42.80
19088;DHT22;9676;50.916;13.352;2023-08-20T12:29:47;36.60;42.80
19088;DHT22;9676;50.916;13.352;2023-08-20T12:32:37;36.60;43.20
19088;DHT22;9676;50.916;13.352;2023-08-20T12:35:28;36.50;43.20
19088;DHT22;9676;50.916;13.352;2023-08-20T12:38:17;36.40;43.40
19088;DHT22;9676;50.916;13.352;2023-08-20T12:41:06;36.30;43.50
19088;DHT22;9676;50.916;13.352;2023-08-20T12:43:56;36.30;43.70
19088;DHT22;9676;50.916;13.352;2023-08-20T12:46:46;36.40;43.90
19088;DHT22;9676;50.916;13.352;2023-08-20T12:49:35;36.40;43.80
19088;DHT22;9676;50.916;13.352;2023-08-20T12:52:26;36.40;43.80
19088;DHT22;9676;50.916;13.352;2023-08-20T12:55:16;36.40;43.80
19088;DHT22;9676;50.916;13.352;2023-08-20T12:58:06;36.40;43.70
19088;DHT22;9676;50.916;13.352;2023-08-20T13:00:55;36.40;43.90
19088;DHT22;9676;50.916;13.352;2023-08-20T13:03:45;36.50;44.20
19088;DHT22;9676;50.916;13.352;2023-08-20T13:06:38;36.50;44.40
19088;DHT22;9676;50.916;13.352;2023-08-20T13:09:30;36.60;44.50
19088;DHT22;9676;50.916;13.352;2023-08-20T13:12:21;36.70;44.70
19088;DHT22;9676;50.916;13.352;2023-08-20T13:15:15;36.70;44.60
19088;DHT22;9676;50.916;13.352;2023-08-20T13:18:06;36.80;44.60
19088;DHT22;9676;50.916;13.352;2023-08-20T13:20:57;36.80;44.60
19088;DHT22;9676;50.916;13.352;2023-08-20T13:23:46;36.80;44.70
19088;DHT22;9676;50.916;13.352;2023-08-20T13:26:37;36.80;44.50
19088;DHT22;9676;50.916;13.352;2023-08-20T13:29:26;36.80;44.60
19088;DHT22;9676;50.916;13.352;2023-08-20T13:32:15;36.90;44.90
19088;DHT22;9676;50.916;13.352;2023-08-20T13:35:05;36.90;44.80
19088;DHT22;9676;50.916;13.352;2023-08-20T13:37:56;36.90;44.70
19088;DHT22;9676;50.916;13.352;2023-08-20T13:40:45;36.90;44.70
19088;DHT22;9676;50.916;13.352;2023-08-20T13:43:36;36.80;44.40
19088;DHT22;9676;50.916;13.352;2023-08-20T13:46:26;36.80;44.60
19088;DHT22;9676;50.916;13.352;2023-08-20T13:49:16;36.70;44.70
19088;DHT22;9676;50.916;13.352;2023-08-20T13:52:05;36.60;44.70
19088;DHT22;9676;50.916;13.352;2023-08-20T13:54:55;36.50;44.90
19088;DHT22;9676;50.916;13.352;2023-08-20T13:57:45;36.40;44.90
19088;DHT22;9676;50.916;13.352;2023-08-20T14:00:36;36.40;45.00
19088;DHT22;9676;50.916;13.352;2023-08-20T14:03:25;36.30;45.00
19088;DHT22;9676;50.916;13.352;2023-08-20T14:06:14;36.20;45.10
19088;DHT22;9676;50.916;13.352;2023-08-20T14:09:04;36.10;45.10
19088;DHT22;9676;50.916;13.352;2023-08-20T14:11:53;36.00;45.30
19088;DHT22;9676;50.916;13.352;2023-08-20T14:14:43;36.00;45.50
19088;DHT22;9676;50.916;13.352;2023-08-20T14:17:34;35.90;45.50
19088;DHT22;9676;50.916;13.352;2023-08-20T14:20:23;35.90;45.60
19088;DHT22;9676;50.916;13.352;2023-08-20T14:23:13;35.80;45.80
19088;DHT22;9676;50.916;13.352;2023-08-20T14:26:04;35.80;45.90
19088;DHT22;9676;50.916;13.352;2023-08-20T14:28:55;35.70;46.10
19088;DHT22;9676;50.916;13.352;2023-08-20T14:31:44;35.60;46.00
19088;DHT22;9676;50.916;13.352;2023-08-20T14:34:35;35.60;46.00
19088;DHT22;9676;50.916;13.352;2023-08-20T14:37:24;35.50;46.00
19088;DHT22;9676;50.916;13.352;2023-08-20T14:40:14;35.50;46.20
19088;DHT22;9676;50.916;13.352;2023-08-20T14:43:04;35.40;46.40
19088;DHT22;9676;50.916;13.352;2023-08-20T14:45:53;35.40;46.60
19088;DHT22;9676;50.916;13.352;2023-08-20T14:48:43;35.30;46.60
19088;DHT22;9676;50.916;13.352;2023-08-20T14:51:34;35.20;46.70
19088;DHT22;9676;50.916;13.352;2023-08-20T14:54:23;35.20;47.00
19088;DHT22;9676;50.916;13.352;2023-08-20T14:57:13;35.20;47.00
19088;DHT22;9676;50.916;13.352;2023-08-20T15:00:06;35.10;47.10
19088;DHT22;9676;50.916;13.352;2023-08-20T15:03:01;35.00;47.50
19088;DHT22;9676;50.916;13.352;2023-08-20T15:05:52;35.00;47.70
19088;DHT22;9676;50.916;13.352;2023-08-20T15:08:43;34.90;47.80
19088;DHT22;9676;50.916;13.352;2023-08-20T15:11:32;34.80;47.80
19088;DHT22;9676;50.916;13.352;2023-08-20T15:14:22;34.80;47.90
19088;DHT22;9676;50.916;13.352;2023-08-20T15:17:11;34.80;48.10
19088;DHT22;9676;50.916;13.352;2023-08-20T15:20:01;34.80;48.20
19088;DHT22;9676;50.916;13.352;2023-08-20T15:22:52;34.90;48.30
19088;DHT22;9676;50.916;13.352;2023-08-20T15:25:46;35.00;48.30
19088;DHT22;9676;50.916;13.352;2023-08-20T15:28:36;35.10;48.30
19088;DHT22;9676;50.916;13.352;2023-08-20T15:31:25;35.20;48.20
19088;DHT22;9676;50.916;13.352;2023-08-20T15:34:16;35.30;48.30
19088;DHT22;9676;50.916;13.352;2023-08-20T15:37:05;35.40;48.10
19088;DHT22;9676;50.916;13.352;2023-08-20T15:39:55;35.50;48.10
19088;DHT22;9676;50.916;13.352;2023-08-20T15:42:46;35.50;48.10
19088;DHT22;9676;50.916;13.352;2023-08-20T15:45:35;35.50;48.10
19088;DHT22;9676;50.916;13.352;2023-08-20T15:48:25;35.60;48.10
19088;DHT22;9676;50.916;13.352;2023-08-20T15:51:14;35.50;48.10
19088;DHT22;9676;50.916;13.352;2023-08-20T15:54:04;35.50;48.20
19088;DHT22;9676;50.916;13.352;2023-08-20T15:56:55;35.40;47.70
19088;DHT22;9676;50.916;13.352;2023-08-20T15:59:46;35.20;46.80
19088;DHT22;9676;50.916;13.352;2023-08-20T16:02:35;35.00;46.50
19088;DHT22;9676;50.916;13.352;2023-08-20T16:05:25;34.60;46.10
19088;DHT22;9676;50.916;13.352;2023-08-20T16:08:14;34.30;46.10
19088;DHT22;9676;50.916;13.352;2023-08-20T16:11:04;34.00;46.20
19088;DHT22;9676;50.916;13.352;2023-08-20T16:13:53;33.80;46.30
19088;DHT22;9676;50.916;13.352;2023-08-20T16:16:44;33.50;46.30
19088;DHT22;9676;50.916;13.352;2023-08-20T16:19:34;33.30;46.30
19088;DHT22;9676;50.916;13.352;2023-08-20T16:22:23;33.20;46.70
19088;DHT22;9676;50.916;13.352;2023-08-20T16:25:12;33.10;46.70
19088;DHT22;9676;50.916;13.352;2023-08-20T16:28:02;32.90;46.80
19088;DHT22;9676;50.916;13.352;2023-08-20T16:30:53;32.80;47.00
19088;DHT22;9676;50.916;13.352;2023-08-20T16:33:43;32.60;46.90
19088;DHT22;9676;50.916;13.352;2023-08-20T16:36:33;32.50;47.40
19088;DHT22;9676;50.916;13.352;2023-08-20T16:39:22;32.30;47.70
19088;DHT22;9676;50.916;13.352;2023-08-20T16:42:12;32.20;48.60
19088;DHT22;9676;50.916;13.352;2023-08-20T16:45:01;31.80;49.40
19088;DHT22;9676;50.916;13.352;2023-08-20T16:47:51;31.30;49.50
19088;DHT22;9676;50.916;13.352;2023-08-20T16:50:41;30.70;56.60
19088;DHT22;9676;50.916;13.352;2023-08-20T16:53:31;29.80;58.10
19088;DHT22;9676;50.916;13.352;2023-08-20T16:56:21;28.90;62.00
19088;DHT22;9676;50.916;13.352;2023-08-20T16:59:11;28.20;66.50
19088;DHT22;9676;50.916;13.352;2023-08-20T17:02:00;27.60;72.20
19088;DHT22;9676;50.916;13.352;2023-08-20T17:04:50;27.10;82.50
19088;DHT22;9676;50.916;13.352;2023-08-20T17:07:40;26.90;91.50
19088;DHT22;9676;50.916;13.352;2023-08-20T17:10:30;26.70;95.50
19088;DHT22;9676;50.916;13.352;2023-08-20T17:13:20;26.80;99.90
19088;DHT22;9676;50.916;13.352;2023-08-20T17:16:10;26.80;99.90
19088;DHT22;9676;50.916;13.352;2023-08-20T17:19:00;26.90;99.90
19088;DHT22;9676;50.916;13.352;2023-08-20T17:21:50;26.90;99.90
19088;DHT22;9676;50.916;13.352;2023-08-20T17:24:41;26.90;99.90
19088;DHT22;9676;50.916;13.352;2023-08-20T17:27:30;27.00;99.90
19088;DHT22;9676;50.916;13.352;2023-08-20T17:30:20;27.00;99.90
19088;DHT22;9676;50.916;13.352;2023-08-20T17:33:09;26.90;99.90
19088;DHT22;9676;50.916;13.352;2023-08-20T17:36:03;26.90;99.90
19088;DHT22;9676;50.916;13.352;2023-08-20T17:38:53;26.90;99.90
19088;DHT22;9676;50.916;13.352;2023-08-20T17:41:48;26.80;99.90
19088;DHT22;9676;50.916;13.352;2023-08-20T17:44:37;26.70;99.90
19088;DHT22;9676;50.916;13.352;2023-08-20T17:47:27;26.60;99.90
19088;DHT22;9676;50.916;13.352;2023-08-20T17:50:16;26.50;99.90
19088;DHT22;9676;50.916;13.352;2023-08-20T17:53:07;26.40;99.90
19088;DHT22;9676;50.916;13.352;2023-08-20T17:55:57;26.30;99.90
19088;DHT22;9676;50.916;13.352;2023-08-20T17:58:49;26.30;99.90